Kellersville, North Carolina
Current Conditions -  °F | °C
As of 6:55 PM on Sunday 21 Dec 2014 (Local Time) from KTNB Reporting Station
Haze Haze  
Wind Chill: 31°   Ceiling: NA
Heat Index: 35°   Visibility: 3mi
Dew Point: 35°   Wind: 5mph
Humidity: 100%   Direction: 110°ESE
Pressure: 30.15"   Gusts: NA
Location:  36.1797°N, 81.8424°W
Report Text: KTNB 212355Z AUTO 11004KT 3SM BR 02/02 A3015 RMK AO2 SKY OBSCURED T00170017 10054 20017
Loading
Personal Weather Stations






























Interactive Weather Map New forecast layout! Learn more

10-Day Weather Forecast

Advertisements
Track Severe Weather on mobile